createdAt,value
2019-04-28T14:10:18.248Z,101810.22
2019-04-28T14:12:52.727Z,101817.27
2019-04-28T14:15:27.481Z,101814.08
2019-04-28T14:18:08.821Z,101812.33
2019-04-28T14:20:45.157Z,101817.31
2019-04-28T14:23:17.586Z,101815.61
2019-04-28T14:25:57.645Z,101825.83
2019-04-28T14:28:29.533Z,101821.23
2019-04-28T14:31:05.147Z,101817.52
2019-04-28T14:33:46.732Z,101818.14
2019-04-28T14:36:19.199Z,101813.38
2019-04-28T14:38:54.531Z,101814.41
2019-04-28T14:41:45.138Z,101804.76
2019-04-28T14:44:22.947Z,101813.67
2019-04-28T14:47:04.451Z,101814.64
2019-04-28T14:49:42.176Z,101814.34
2019-04-28T14:55:12.198Z,101816.00
2019-04-28T14:57:43.369Z,101817.23
2019-04-28T15:00:17.112Z,101811.22
2019-04-28T15:02:52.119Z,101812.77
2019-04-28T15:05:46.375Z,101815.63
2019-04-28T15:08:23.174Z,101820.08
2019-04-28T15:11:02.301Z,101820.89
2019-04-28T15:13:35.058Z,101828.92
2019-04-28T15:16:09.330Z,101816.47
2019-04-28T15:18:47.562Z,101819.59
2019-04-28T15:21:23.391Z,101811.80
2019-04-28T15:24:00.014Z,101823.25
2019-04-28T15:26:47.793Z,101823.91
2019-04-28T15:29:24.635Z,101823.59
2019-04-28T15:31:58.875Z,101822.53
2019-04-28T15:34:32.542Z,101830.01
2019-04-28T15:37:10.056Z,101837.93
2019-04-28T15:42:38.991Z,101834.25
2019-04-28T15:45:13.854Z,101832.80
2019-04-28T15:47:49.246Z,101845.21
2019-04-28T15:50:25.624Z,101844.88
2019-04-28T15:53:03.178Z,101850.25
2019-04-28T15:55:40.694Z,101846.60
2019-04-28T15:58:28.622Z,101842.33
2019-04-28T16:01:01.050Z,101850.58
2019-04-28T16:03:32.410Z,101854.52
2019-04-28T16:06:06.834Z,101845.56
2019-04-28T16:08:36.244Z,101848.38
2019-04-28T16:11:07.447Z,101842.56
2019-04-28T16:13:37.661Z,101848.28
2019-04-28T16:16:07.300Z,101844.41
2019-04-28T16:18:42.023Z,101846.69
2019-04-28T16:21:11.543Z,101849.63
2019-04-28T16:23:42.660Z,101846.66
2019-04-28T16:26:16.626Z,101848.99
2019-04-28T16:28:48.600Z,101854.82
2019-04-28T16:31:20.108Z,101848.36
2019-04-28T16:33:51.399Z,101852.86
2019-04-28T16:36:24.707Z,101856.00
2019-04-28T16:38:56.750Z,101854.34
2019-04-28T16:41:28.444Z,101856.41
2019-04-28T16:44:01.666Z,101862.91
2019-04-28T16:46:34.651Z,101868.86
2019-04-28T16:49:04.500Z,101870.75
2019-04-28T16:51:38.359Z,101868.84
2019-04-28T16:54:09.607Z,101863.84
2019-04-28T16:56:47.212Z,101868.08
2019-04-28T16:59:24.165Z,101873.38
2019-04-28T17:01:57.923Z,101870.55
2019-04-28T17:04:29.335Z,101876.39
2019-04-28T17:06:58.767Z,101877.16
2019-04-28T17:09:28.259Z,101883.70
2019-04-28T17:11:58.950Z,101891.30
2019-04-28T17:14:28.293Z,101896.59
2019-04-28T17:17:00.771Z,101899.62
2019-04-28T17:19:31.806Z,101896.15
2019-04-28T17:22:01.356Z,101894.84
2019-04-28T17:24:32.755Z,101892.95
2019-04-28T17:27:02.094Z,101903.84
2019-04-28T17:29:31.477Z,101902.35
2019-04-28T17:32:00.874Z,101907.45
2019-04-28T17:34:29.850Z,101904.80
2019-04-28T17:36:58.873Z,101911.81
2019-04-28T17:39:29.544Z,101909.52
2019-04-28T17:42:00.227Z,101910.44
2019-04-28T17:44:39.460Z,101921.38
2019-04-28T17:47:09.496Z,101924.18
2019-04-28T17:49:38.804Z,101923.41
2019-04-28T17:52:09.424Z,101920.50
2019-04-28T17:54:38.630Z,101933.30
2019-04-28T17:57:07.795Z,101933.88
2019-04-28T17:59:37.099Z,101933.30
2019-04-28T18:02:11.234Z,101930.77
2019-04-28T18:04:57.555Z,101937.48
2019-04-28T18:07:27.987Z,101930.59
2019-04-28T18:09:56.887Z,101925.60
2019-04-28T18:12:25.697Z,101934.14
2019-04-28T18:14:57.833Z,101935.69
2019-04-28T18:17:32.297Z,101937.27
2019-04-28T18:20:01.229Z,101943.70
2019-04-28T18:22:29.749Z,101942.55
2019-04-28T18:24:58.370Z,101947.07
2019-04-28T18:27:27.646Z,101948.27
2019-04-28T18:29:56.204Z,101961.73
2019-04-28T18:32:28.708Z,101960.08
2019-04-28T18:35:14.063Z,101964.05
2019-04-28T18:38:01.309Z,101969.95
2019-04-28T18:40:47.216Z,101970.15
2019-04-28T18:43:20.346Z,101978.70
2019-04-28T18:45:48.798Z,101983.86
2019-04-28T18:48:17.210Z,101984.24
2019-04-28T18:50:46.051Z,101982.59
2019-04-28T18:53:14.471Z,101987.30
2019-04-28T18:55:43.236Z,101990.67
2019-04-28T18:58:11.746Z,101995.02
2019-04-28T19:00:41.838Z,101995.34
2019-04-28T19:03:10.269Z,101996.03
2019-04-28T19:05:40.379Z,101997.34
2019-04-28T19:08:13.564Z,102006.02
2019-04-28T19:10:59.353Z,102012.71
2019-04-28T19:13:29.455Z,102010.34
2019-04-28T19:16:17.901Z,102014.64
2019-04-28T19:18:51.118Z,102019.33
2019-04-28T19:21:19.579Z,102018.58
2019-04-28T19:23:49.466Z,102016.53
2019-04-28T19:26:18.796Z,102017.82
2019-04-28T19:28:47.825Z,102019.48
2019-04-28T19:31:16.277Z,102026.48
2019-04-28T19:33:44.798Z,102034.13
2019-04-28T19:36:13.368Z,102041.13
2019-04-28T19:38:41.857Z,102031.75
2019-04-28T19:41:10.275Z,102038.39
2019-04-28T19:43:38.784Z,102037.37
2019-04-28T19:46:09.133Z,102037.37
2019-04-28T19:48:37.569Z,102033.82
2019-04-28T19:51:05.997Z,102042.66
2019-04-28T19:53:34.536Z,102037.77
2019-04-28T19:56:04.613Z,102044.45
2019-04-28T19:58:43.377Z,102042.39
2019-04-28T20:01:15.834Z,102041.84
2019-04-28T20:03:44.672Z,102043.32
2019-04-28T20:06:13.403Z,102044.11
2019-04-28T20:08:41.828Z,102052.38
2019-04-28T20:11:10.519Z,102042.32
2019-04-28T20:13:39.092Z,102045.25
2019-04-28T20:16:07.706Z,102044.05
2019-04-28T20:18:36.139Z,102048.52
2019-04-28T20:21:04.614Z,102046.64
2019-04-28T20:23:33.058Z,102049.47
2019-04-28T20:26:01.565Z,102058.25
2019-04-28T20:28:30.053Z,102062.72
2019-04-28T20:30:58.539Z,102060.31
2019-04-28T20:33:27.247Z,102072.59
2019-04-28T20:35:57.336Z,102076.17
2019-04-28T20:38:30.106Z,102077.11
2019-04-28T20:41:08.916Z,102076.55
2019-04-28T20:43:37.391Z,102083.68
2019-04-28T20:46:05.869Z,102079.84
2019-04-28T20:48:34.444Z,102082.30
2019-04-28T20:51:02.876Z,102081.60
2019-04-28T20:53:31.431Z,102086.88
2019-04-28T20:56:00.099Z,102088.51
2019-04-28T20:58:28.552Z,102089.82
2019-04-28T21:00:57.055Z,102092.14
2019-04-28T21:03:25.707Z,102101.12
2019-04-28T21:05:54.128Z,102101.89
2019-04-28T21:08:22.590Z,102100.38
2019-04-28T21:10:51.014Z,102096.31
2019-04-28T21:13:19.591Z,102102.63
2019-04-28T21:15:48.046Z,102103.62
2019-04-28T21:18:16.987Z,102114.56
2019-04-28T21:20:45.642Z,102110.52
2019-04-28T21:23:14.042Z,102117.81
2019-04-28T21:25:42.502Z,102113.12
2019-04-28T21:28:10.950Z,102124.06
2019-04-28T21:30:39.433Z,102117.72
2019-04-28T21:33:08.120Z,102117.03
2019-04-28T21:35:36.546Z,102119.98
2019-04-28T21:38:05.081Z,102122.07
2019-04-28T21:40:33.929Z,102124.55
2019-04-28T21:43:06.939Z,102117.83
2019-04-28T21:45:53.171Z,102126.16
2019-04-28T21:48:41.586Z,102125.11
2019-04-28T21:51:12.002Z,102130.73
2019-04-28T21:53:40.237Z,102131.64
2019-04-28T21:56:08.825Z,102132.28
2019-04-28T21:58:37.273Z,102125.43
2019-04-28T22:01:07.199Z,102129.86
2019-04-28T22:03:35.585Z,102130.78
2019-04-28T22:06:04.779Z,102137.02
2019-04-28T22:08:33.208Z,102133.94
2019-04-28T22:11:01.675Z,102141.15
2019-04-28T22:13:30.518Z,102140.09
2019-04-28T22:15:58.946Z,102140.73
2019-04-28T22:18:27.380Z,102138.73
2019-04-28T22:20:55.939Z,102140.53
2019-04-28T22:23:44.335Z,102132.98
2019-04-28T22:26:14.426Z,102142.92
2019-04-28T22:28:42.861Z,102135.57
2019-04-28T22:31:11.336Z,102142.50
2019-04-28T22:33:39.823Z,102134.52
2019-04-28T22:36:08.252Z,102138.78
2019-04-28T22:38:36.848Z,102135.07
2019-04-28T22:41:05.389Z,102132.34
2019-04-28T22:43:33.826Z,102142.98
2019-04-28T22:46:02.248Z,102142.91
2019-04-28T22:48:30.685Z,102139.54
2019-04-28T22:50:59.578Z,102140.05
2019-04-28T22:53:29.701Z,102136.25
2019-04-28T22:56:02.282Z,102137.30
2019-04-28T22:58:32.346Z,102142.16
2019-04-28T23:01:02.409Z,102135.70
2019-04-28T23:03:35.613Z,102139.06
2019-04-28T23:06:04.697Z,102145.36
2019-04-28T23:08:33.135Z,102142.23
2019-04-28T23:11:01.625Z,102137.73
2019-04-28T23:13:30.051Z,102145.36
2019-04-28T23:15:58.566Z,102143.48
2019-04-28T23:18:27.657Z,102143.25
2019-04-28T23:21:06.375Z,102138.56
2019-04-28T23:23:34.842Z,102139.54
2019-04-28T23:26:03.296Z,102136.53
2019-04-28T23:28:31.716Z,102142.47
2019-04-28T23:31:00.207Z,102134.10
2019-04-28T23:33:28.621Z,102131.91
2019-04-28T23:35:57.141Z,102129.05
2019-04-28T23:38:25.610Z,102138.13
2019-04-28T23:40:55.676Z,102137.42
2019-04-28T23:43:24.112Z,102135.75
2019-04-28T23:45:53.348Z,102140.94
2019-04-28T23:48:21.776Z,102138.64
2019-04-28T23:50:51.844Z,102142.74
2019-04-28T23:53:22.275Z,102144.58
2019-04-28T23:55:50.721Z,102146.27
2019-04-28T23:58:19.164Z,102149.90
